createdAt,value
2018-08-28T00:00:19.180Z,23.55
2018-08-28T00:01:29.117Z,23.58
2018-08-28T00:02:38.819Z,23.55
2018-08-28T00:03:48.499Z,23.48
2018-08-28T00:04:57.683Z,23.53
2018-08-28T00:06:06.838Z,23.51
2018-08-28T00:07:16.258Z,23.51
2018-08-28T00:08:25.689Z,23.5
2018-08-28T00:09:34.599Z,23.54
2018-08-28T00:10:44.026Z,23.55
2018-08-28T00:11:53.434Z,23.57
2018-08-28T00:13:02.620Z,23.54
2018-08-28T00:14:12.053Z,23.5
2018-08-28T00:15:21.203Z,23.51
2018-08-28T00:16:30.601Z,23.55
2018-08-28T00:17:40.331Z,23.54
2018-08-28T00:18:50.019Z,23.5
2018-08-28T00:19:59.419Z,23.46
2018-08-28T00:21:08.878Z,23.5
2018-08-28T00:22:18.102Z,23.46
2018-08-28T00:23:27.776Z,23.51
2018-08-28T00:24:37.459Z,23.43
2018-08-28T00:25:46.608Z,23.43
2018-08-28T00:26:55.756Z,23.48
2018-08-28T00:28:05.433Z,23.5
2018-08-28T00:29:14.847Z,23.51
2018-08-28T00:30:24.526Z,23.4
2018-08-28T00:31:33.950Z,23.5
2018-08-28T00:32:43.139Z,23.46
2018-08-28T00:33:52.810Z,23.43
2018-08-28T00:35:01.972Z,23.46
2018-08-28T00:36:11.382Z,23.47
2018-08-28T00:37:20.819Z,23.46
2018-08-28T00:38:30.244Z,23.4
2018-08-28T00:39:39.156Z,23.47
2018-08-28T00:40:48.823Z,23.39
2018-08-28T00:41:58.757Z,23.48
2018-08-28T00:43:07.916Z,23.48
2018-08-28T00:44:17.330Z,23.4
2018-08-28T00:45:26.739Z,23.46
2018-08-28T00:46:35.902Z,23.46
2018-08-28T00:47:45.589Z,23.43
2018-08-28T00:48:55.013Z,23.47
2018-08-28T00:50:04.178Z,23.42
2018-08-28T00:51:13.326Z,23.43
2018-08-28T00:52:22.390Z,23.4
2018-08-28T00:53:32.618Z,23.39
2018-08-28T00:54:42.298Z,23.42
2018-08-28T00:55:55.082Z,23.43
2018-08-28T00:57:04.236Z,23.46
2018-08-28T00:58:14.216Z,23.43
2018-08-28T00:59:23.635Z,23.46
2018-08-28T01:00:33.050Z,23.46
2018-08-28T01:01:42.718Z,23.47
2018-08-28T01:02:52.129Z,23.39
2018-08-28T01:04:01.016Z,23.46
2018-08-28T01:05:10.706Z,23.42
2018-08-28T01:06:20.372Z,23.42
2018-08-28T01:07:29.287Z,23.43
2018-08-28T01:08:38.716Z,23.46
2018-08-28T01:09:48.433Z,23.4
2018-08-28T01:10:57.595Z,23.4
2018-08-28T01:12:07.070Z,23.5
2018-08-28T01:13:15.988Z,23.51
2018-08-28T01:14:25.403Z,23.43
2018-08-28T01:15:35.412Z,23.43
2018-08-28T01:16:45.079Z,23.47
2018-08-28T01:17:54.342Z,23.42
2018-08-28T01:19:03.237Z,23.4
2018-08-28T01:20:12.392Z,23.48
2018-08-28T01:21:21.556Z,23.4
2018-08-28T01:22:31.493Z,23.4
2018-08-28T01:23:40.632Z,23.4
2018-08-28T01:24:50.042Z,23.47
2018-08-28T01:25:59.693Z,23.47
2018-08-28T01:27:09.372Z,23.42
2018-08-28T01:28:19.048Z,23.4
2018-08-28T01:29:28.252Z,23.46
2018-08-28T01:30:38.289Z,23.5
2018-08-28T01:31:47.442Z,23.47
2018-08-28T01:32:56.598Z,23.5
2018-08-28T01:34:06.024Z,23.48
2018-08-28T01:35:15.433Z,23.42
2018-08-28T01:36:25.135Z,23.4
2018-08-28T01:37:34.549Z,23.4
2018-08-28T01:38:43.454Z,23.46
2018-08-28T01:39:52.875Z,23.36
2018-08-28T01:41:02.538Z,23.47
2018-08-28T01:42:11.692Z,23.43
2018-08-28T01:43:21.181Z,23.47
2018-08-28T01:44:30.593Z,23.47
2018-08-28T01:45:40.604Z,23.46
2018-08-28T01:46:50.529Z,23.42
2018-08-28T01:48:00.217Z,23.4
2018-08-28T01:49:09.653Z,23.47
2018-08-28T01:50:19.066Z,23.4
2018-08-28T01:51:28.499Z,23.42
2018-08-28T01:52:37.904Z,23.42
2018-08-28T01:53:47.312Z,23.51
2018-08-28T01:54:56.974Z,23.48
2018-08-28T01:56:06.393Z,23.55
2018-08-28T01:57:16.065Z,23.55
2018-08-28T01:58:26.017Z,23.46
2018-08-28T01:59:35.491Z,23.53
2018-08-28T02:00:45.426Z,23.48
2018-08-28T02:01:54.830Z,23.55
2018-08-28T02:03:04.236Z,23.53
2018-08-28T02:04:13.916Z,23.47
2018-08-28T02:05:23.841Z,23.58
2018-08-28T02:06:33.788Z,23.46
2018-08-28T02:07:43.205Z,23.5
2018-08-28T02:08:52.360Z,23.57
2018-08-28T02:10:01.770Z,23.51
2018-08-28T02:11:11.197Z,23.51
2018-08-28T02:12:20.606Z,23.51
2018-08-28T02:13:30.280Z,23.54
2018-08-28T02:14:39.707Z,23.43
2018-08-28T02:15:49.422Z,23.51
2018-08-28T02:16:59.357Z,23.48
2018-08-28T02:18:08.525Z,23.53
2018-08-28T02:19:18.205Z,23.48
2018-08-28T02:20:28.143Z,23.47
2018-08-28T02:21:37.888Z,23.55
2018-08-28T02:22:47.552Z,23.48
2018-08-28T02:23:57.220Z,23.54
2018-08-28T02:25:06.384Z,23.54
2018-08-28T02:26:16.059Z,23.51
2018-08-28T02:27:25.237Z,23.51
2018-08-28T02:28:34.650Z,23.53
2018-08-28T02:29:43.560Z,23.53
2018-08-28T02:30:52.713Z,23.48
2018-08-28T02:32:02.135Z,23.48
2018-08-28T02:33:11.807Z,23.4
2018-08-28T02:34:21.756Z,23.46
2018-08-28T02:35:31.178Z,23.46
2018-08-28T02:36:40.377Z,23.43
2018-08-28T02:37:49.804Z,23.48
2018-08-28T02:38:59.491Z,23.47
2018-08-28T02:40:08.924Z,23.42
2018-08-28T02:41:18.353Z,23.46
2018-08-28T02:42:28.040Z,23.46
2018-08-28T02:43:37.477Z,23.43
2018-08-28T02:44:47.129Z,23.4
2018-08-28T02:45:56.538Z,23.43
2018-08-28T02:47:05.428Z,23.42
2018-08-28T02:48:14.589Z,23.4
2018-08-28T02:49:24.262Z,23.39
2018-08-28T02:50:33.944Z,23.35
2018-08-28T02:51:43.347Z,23.38
2018-08-28T02:52:53.022Z,23.36
2018-08-28T02:54:02.431Z,23.46
2018-08-28T02:55:11.340Z,23.4
2018-08-28T02:56:21.482Z,23.4
2018-08-28T02:57:31.107Z,23.33
2018-08-28T02:58:40.540Z,23.32
2018-08-28T02:59:50.209Z,23.35
2018-08-28T03:00:59.364Z,23.36
2018-08-28T03:02:08.785Z,23.36
2018-08-28T03:03:17.954Z,23.36
2018-08-28T03:04:27.378Z,23.39
2018-08-28T03:05:36.576Z,23.39
2018-08-28T03:06:45.724Z,23.38
2018-08-28T03:07:55.417Z,23.27
2018-08-28T03:09:04.567Z,23.35
2018-08-28T03:10:13.983Z,23.22
2018-08-28T03:11:23.763Z,23.27
2018-08-28T03:12:33.771Z,23.28
2018-08-28T03:13:43.186Z,23.23
2018-08-28T03:14:52.854Z,23.28
2018-08-28T03:16:02.772Z,23.27
2018-08-28T03:17:12.905Z,23.16
2018-08-28T03:18:22.997Z,23.2
2018-08-28T03:19:32.452Z,23.22
2018-08-28T03:20:42.385Z,23.19
2018-08-28T03:21:51.541Z,23.16
2018-08-28T03:23:01.502Z,23.2
2018-08-28T03:24:11.187Z,23.28
2018-08-28T03:25:20.618Z,23.25
2018-08-28T03:26:30.295Z,23.2
2018-08-28T03:27:39.463Z,23.27
2018-08-28T03:28:48.870Z,23.22
2018-08-28T03:29:58.369Z,23.19
2018-08-28T03:31:08.077Z,23.23
2018-08-28T03:32:17.543Z,23.2
2018-08-28T03:33:26.710Z,23.19
2018-08-28T03:34:35.854Z,23.19
2018-08-28T03:35:45.283Z,23.15
2018-08-28T03:36:54.710Z,23.17
2018-08-28T03:38:04.400Z,23.1
2018-08-28T03:39:14.076Z,23.15
2018-08-28T03:40:23.757Z,23.15
2018-08-28T03:41:33.203Z,23.15
2018-08-28T03:42:42.618Z,23.2
2018-08-28T03:43:52.287Z,23.17
2018-08-28T03:45:01.722Z,23.15
2018-08-28T03:46:11.413Z,23.15
2018-08-28T03:47:20.579Z,23.15
2018-08-28T03:48:29.218Z,23.07
2018-08-28T03:49:39.183Z,23.15
2018-08-28T03:50:48.608Z,23.02
2018-08-28T03:51:58.288Z,23.16
2018-08-28T03:53:08.017Z,23.07
2018-08-28T03:54:17.963Z,23.12
2018-08-28T03:55:27.828Z,23.15
2018-08-28T03:56:37.831Z,23.05
2018-08-28T03:57:47.775Z,23.13
2018-08-28T03:58:56.673Z,23.07
2018-08-28T04:00:06.136Z,23.12
2018-08-28T04:01:15.825Z,23.02
2018-08-28T04:02:24.987Z,23.1
2018-08-28T04:03:34.588Z,23.1
2018-08-28T04:04:44.361Z,23.09
2018-08-28T04:05:53.785Z,22.98
2018-08-28T04:07:03.747Z,23.1
2018-08-28T04:08:13.700Z,23.07
2018-08-28T04:09:22.601Z,23.05
2018-08-28T04:10:32.028Z,23.09
2018-08-28T04:11:41.738Z,23.05
2018-08-28T04:12:50.894Z,23.09
2018-08-28T04:14:00.322Z,23.05
2018-08-28T04:15:09.785Z,23.05
2018-08-28T04:16:19.191Z,23.02
2018-08-28T04:17:28.601Z,23.01
2018-08-28T04:18:38.525Z,23.02
2018-08-28T04:19:48.208Z,23.05
2018-08-28T04:20:57.362Z,23.05
2018-08-28T04:22:06.259Z,23.09
2018-08-28T04:23:15.682Z,23.05
2018-08-28T04:24:25.094Z,22.98
2018-08-28T04:25:34.512Z,23.02
2018-08-28T04:26:43.921Z,23.01
2018-08-28T04:27:53.590Z,23.05
2018-08-28T04:29:03.262Z,22.98
2018-08-28T04:30:12.688Z,23
2018-08-28T04:31:22.115Z,22.97
2018-08-28T04:32:31.515Z,23.04
2018-08-28T04:33:41.178Z,23.04
2018-08-28T04:34:50.589Z,22.98
2018-08-28T04:36:00.250Z,23.02
2018-08-28T04:37:09.661Z,23.02
2018-08-28T04:38:18.832Z,23.01
2018-08-28T04:39:28.503Z,23
2018-08-28T04:40:38.171Z,22.97
2018-08-28T04:41:47.781Z,23.02
2018-08-28T04:42:57.008Z,23.01
2018-08-28T04:44:06.423Z,22.98
2018-08-28T04:45:15.869Z,23.02
2018-08-28T04:46:25.542Z,22.98
2018-08-28T04:47:35.206Z,23
2018-08-28T04:48:44.465Z,22.92
2018-08-28T04:49:54.242Z,22.98
2018-08-28T04:51:03.413Z,22.91
2018-08-28T04:52:13.511Z,22.95
2018-08-28T04:53:23.221Z,22.97
2018-08-28T04:54:32.436Z,22.95
2018-08-28T04:55:41.913Z,22.97
2018-08-28T04:56:51.606Z,23
2018-08-28T04:58:01.049Z,22.97
2018-08-28T04:59:10.473Z,22.88
2018-08-28T05:00:19.958Z,22.97
2018-08-28T05:01:29.386Z,23.02
2018-08-28T05:02:39.098Z,22.95
2018-08-28T05:03:49.035Z,22.9
2018-08-28T05:04:58.464Z,22.88
2018-08-28T05:06:08.131Z,22.88
2018-08-28T05:07:17.800Z,22.92
2018-08-28T05:08:27.489Z,22.92
2018-08-28T05:09:36.389Z,22.92
2018-08-28T05:10:45.823Z,22.95
2018-08-28T05:11:55.470Z,22.92
2018-08-28T05:13:04.224Z,22.97
2018-08-28T05:14:13.885Z,22.97
2018-08-28T05:15:23.315Z,22.92
2018-08-28T05:16:32.483Z,22.92
2018-08-28T05:17:41.906Z,22.88
2018-08-28T05:18:51.073Z,22.91
2018-08-28T05:20:01.013Z,22.92
2018-08-28T05:21:10.692Z,22.9
2018-08-28T05:22:20.109Z,22.92
2018-08-28T05:23:29.020Z,22.88
2018-08-28T05:24:38.447Z,22.92
2018-08-28T05:25:47.874Z,22.92
2018-08-28T05:26:57.567Z,22.94
2018-08-28T05:28:06.731Z,22.91
2018-08-28T05:29:15.897Z,22.97
2018-08-28T05:30:25.411Z,22.95
2018-08-28T05:31:35.506Z,22.97
2018-08-28T05:32:44.418Z,22.97
2018-08-28T05:33:53.329Z,22.94
2018-08-28T05:35:02.470Z,22.92
2018-08-28T05:36:12.436Z,22.98
2018-08-28T05:37:21.593Z,23
2018-08-28T05:38:31.020Z,22.95
2018-08-28T05:39:40.210Z,23
2018-08-28T05:40:49.753Z,23
2018-08-28T05:41:59.440Z,23.05
2018-08-28T05:43:09.116Z,23.05
2018-08-28T05:44:18.391Z,23.1
2018-08-28T05:45:27.805Z,23.02
2018-08-28T05:46:37.481Z,23.09
2018-08-28T05:47:47.180Z,23
2018-08-28T05:48:56.852Z,23.13
2018-08-28T05:50:05.750Z,23.1
2018-08-28T05:51:14.651Z,23.13
2018-08-28T05:52:24.074Z,23.07
2018-08-28T05:53:33.223Z,23.04
2018-08-28T05:54:42.637Z,23.15
2018-08-28T05:55:52.635Z,23.04
2018-08-28T05:57:02.497Z,23.15
2018-08-28T05:58:12.185Z,23.09
2018-08-28T05:59:21.338Z,23.15
2018-08-28T06:00:30.805Z,23.04
2018-08-28T06:01:39.696Z,23.05
2018-08-28T06:02:49.455Z,23.12
2018-08-28T06:03:59.458Z,23.13
2018-08-28T06:05:09.134Z,23.04
2018-08-28T06:06:18.576Z,23.09
2018-08-28T06:07:28.243Z,23.01
2018-08-28T06:08:37.689Z,23.01
2018-08-28T06:09:46.936Z,23.07
2018-08-28T06:10:56.391Z,23.05
2018-08-28T06:12:06.367Z,23.05
2018-08-28T06:13:15.861Z,23.01
2018-08-28T06:14:24.805Z,23.05
2018-08-28T06:15:33.960Z,23.05
2018-08-28T06:16:43.382Z,23.05
2018-08-28T06:17:52.828Z,23
2018-08-28T06:19:01.975Z,23.02
2018-08-28T06:20:11.121Z,23.01
2018-08-28T06:21:20.017Z,23.01
2018-08-28T06:22:30.320Z,22.94
2018-08-28T06:23:39.770Z,22.98
2018-08-28T06:24:49.433Z,23.02
2018-08-28T06:25:58.866Z,23.04
2018-08-28T06:27:08.548Z,23.01
2018-08-28T06:28:17.699Z,23.02
2018-08-28T06:29:27.640Z,23
2018-08-28T06:30:37.054Z,22.98
2018-08-28T06:31:46.484Z,23
2018-08-28T06:32:55.627Z,23
2018-08-28T06:34:05.552Z,22.95
2018-08-28T06:35:15.454Z,22.97
2018-08-28T06:36:24.914Z,23.05
2018-08-28T06:37:34.162Z,23.04
2018-08-28T06:38:43.071Z,23.01
2018-08-28T06:39:52.806Z,23.07
2018-08-28T06:41:02.476Z,23.01
2018-08-28T06:42:11.636Z,23.01
2018-08-28T06:43:20.788Z,23.04
2018-08-28T06:44:30.618Z,23.05
2018-08-28T06:45:40.036Z,23.09
2018-08-28T06:46:48.670Z,23.04
2018-08-28T06:47:58.338Z,23.07
2018-08-28T06:49:08.256Z,23.13
2018-08-28T06:50:17.418Z,23.17
2018-08-28T06:51:26.836Z,23.25
2018-08-28T06:52:36.014Z,23.1
2018-08-28T06:53:45.682Z,23.19
2018-08-28T06:54:55.341Z,23.23
2018-08-28T06:56:04.798Z,23.27
2018-08-28T06:57:14.221Z,23.31
2018-08-28T06:58:23.379Z,23.22
2018-08-28T06:59:32.543Z,23.19
2018-08-28T07:00:41.688Z,23.27
2018-08-28T07:01:50.883Z,23.22
2018-08-28T07:03:00.828Z,23.28
2018-08-28T07:04:10.517Z,23.16
2018-08-28T07:05:19.680Z,23.25
2018-08-28T07:06:29.620Z,23.28
2018-08-28T07:07:38.780Z,23.31
2018-08-28T07:08:48.465Z,23.27
2018-08-28T07:09:58.156Z,23.32
2018-08-28T07:11:07.887Z,23.23
2018-08-28T07:12:17.576Z,23.32
2018-08-28T07:13:26.465Z,23.25
2018-08-28T07:14:35.897Z,23.27
2018-08-28T07:15:45.095Z,23.27
2018-08-28T07:16:54.775Z,23.33
2018-08-28T07:18:03.928Z,23.31
2018-08-28T07:19:13.332Z,23.27
2018-08-28T07:20:22.744Z,23.31
2018-08-28T07:21:32.179Z,23.23
2018-08-28T07:22:41.843Z,23.39
2018-08-28T07:23:51.315Z,23.4
2018-08-28T07:25:01.005Z,23.39
2018-08-28T07:26:11.144Z,23.25
2018-08-28T07:27:20.404Z,23.39
2018-08-28T07:28:29.590Z,23.38
2018-08-28T07:29:39.015Z,23.38
2018-08-28T07:30:48.454Z,23.42
2018-08-28T07:31:58.419Z,23.33
2018-08-28T07:33:08.359Z,23.4
2018-08-28T07:34:17.752Z,23.38
2018-08-28T07:35:27.440Z,23.33
2018-08-28T07:36:36.871Z,23.38
2018-08-28T07:37:46.279Z,23.4
2018-08-28T07:38:55.728Z,23.36
2018-08-28T07:40:05.140Z,23.36
2018-08-28T07:41:14.602Z,23.38
2018-08-28T07:42:24.271Z,23.35
2018-08-28T07:43:34.213Z,23.31
2018-08-28T07:44:43.891Z,23.35
2018-08-28T07:45:53.081Z,23.39
2018-08-28T07:47:02.744Z,23.38
2018-08-28T07:48:11.928Z,23.36
2018-08-28T07:49:21.759Z,23.35
2018-08-28T07:50:31.234Z,23.43
2018-08-28T07:51:40.642Z,23.47
2018-08-28T07:52:50.060Z,23.38
2018-08-28T07:54:00.103Z,23.43
2018-08-28T07:55:10.255Z,23.39
2018-08-28T07:56:19.928Z,23.39
2018-08-28T07:57:29.350Z,23.39
2018-08-28T07:58:38.776Z,23.4
2018-08-28T07:59:48.440Z,23.39
2018-08-28T08:00:58.126Z,23.4
2018-08-28T08:02:07.554Z,23.43
2018-08-28T08:03:17.488Z,23.43
2018-08-28T08:04:27.159Z,23.4
2018-08-28T08:05:36.335Z,23.46
2018-08-28T08:06:45.771Z,23.48
2018-08-28T08:07:55.189Z,23.4
2018-08-28T08:09:04.890Z,23.55
2018-08-28T08:10:14.580Z,23.51
2018-08-28T08:11:23.847Z,23.51
2018-08-28T08:12:33.274Z,23.53
2018-08-28T08:13:43.525Z,23.51
2018-08-28T08:14:53.267Z,23.54
2018-08-28T08:16:02.994Z,23.51
2018-08-28T08:17:12.609Z,23.51
2018-08-28T08:18:22.152Z,23.55
2018-08-28T08:19:31.093Z,23.5
2018-08-28T08:20:40.512Z,23.5
2018-08-28T08:21:49.696Z,23.54
2018-08-28T08:22:59.404Z,23.55
2018-08-28T08:24:08.603Z,23.54
2018-08-28T08:25:18.291Z,23.54
2018-08-28T08:26:27.476Z,23.51
2018-08-28T08:27:36.894Z,23.51
2018-08-28T08:28:46.675Z,23.57
2018-08-28T08:29:56.372Z,23.57
2018-08-28T08:31:05.801Z,23.51
2018-08-28T08:32:14.969Z,23.61
2018-08-28T08:33:24.682Z,23.54
2018-08-28T08:34:34.371Z,23.57
2018-08-28T08:35:44.101Z,23.6
2018-08-28T08:36:53.793Z,23.54
2018-08-28T08:38:03.492Z,23.51
2018-08-28T08:39:12.669Z,23.58
2018-08-28T08:40:21.587Z,23.55
2018-08-28T08:41:30.842Z,23.58
2018-08-28T08:42:40.787Z,23.57
2018-08-28T08:43:50.490Z,23.6
2018-08-28T08:44:59.652Z,23.6
2018-08-28T08:46:09.452Z,23.6
2018-08-28T08:47:18.888Z,23.66
2018-08-28T08:48:28.638Z,23.6
2018-08-28T08:49:38.068Z,23.6
2018-08-28T08:50:47.770Z,23.6
2018-08-28T08:51:56.955Z,23.65
2018-08-28T08:53:06.390Z,23.58
2018-08-28T08:54:15.037Z,23.57
2018-08-28T08:55:24.490Z,23.61
2018-08-28T08:56:33.684Z,23.63
2018-08-28T08:57:42.856Z,23.61
2018-08-28T08:58:52.017Z,23.61
2018-08-28T09:00:01.695Z,23.65
2018-08-28T09:01:11.429Z,23.55
2018-08-28T09:02:20.599Z,23.63
2018-08-28T09:03:30.028Z,23.6
2018-08-28T09:04:40.203Z,23.61
2018-08-28T09:05:49.627Z,23.57
2018-08-28T09:06:59.472Z,23.68
2018-08-28T09:08:09.188Z,23.6
2018-08-28T09:09:18.615Z,23.65
2018-08-28T09:10:28.296Z,23.63
2018-08-28T09:11:37.736Z,23.58
2018-08-28T09:12:46.653Z,23.66
2018-08-28T09:13:56.360Z,23.63
2018-08-28T09:15:06.080Z,23.63
2018-08-28T09:16:15.553Z,23.63
2018-08-28T09:17:25.233Z,23.65
2018-08-28T09:18:35.202Z,23.63
2018-08-28T09:19:44.401Z,23.61
2018-08-28T09:20:53.842Z,23.66
2018-08-28T09:22:03.025Z,23.6
2018-08-28T09:23:13.419Z,23.69
2018-08-28T09:24:22.854Z,23.61
2018-08-28T09:25:32.038Z,23.61
2018-08-28T09:26:41.477Z,23.63
2018-08-28T09:27:50.896Z,23.57
2018-08-28T09:29:00.333Z,23.65
2018-08-28T09:30:09.252Z,23.69
2018-08-28T09:31:18.521Z,23.66
2018-08-28T09:32:28.525Z,23.61
2018-08-28T09:33:38.008Z,23.63
2018-08-28T09:34:47.181Z,23.65
2018-08-28T09:35:56.104Z,23.63
2018-08-28T09:37:05.578Z,23.61
2018-08-28T09:38:15.602Z,23.63
2018-08-28T09:39:25.406Z,23.6
2018-08-28T09:40:34.909Z,23.68
2018-08-28T09:41:44.337Z,23.65
2018-08-28T09:42:53.786Z,23.68
2018-08-28T09:44:03.487Z,23.63
2018-08-28T09:45:12.699Z,23.65
2018-08-28T09:46:21.901Z,23.66
2018-08-28T09:47:31.332Z,23.61
2018-08-28T09:48:41.035Z,23.69
2018-08-28T09:49:50.521Z,23.63
2018-08-28T09:51:00.448Z,23.69
2018-08-28T09:52:09.487Z,23.68
2018-08-28T09:53:18.902Z,23.61
2018-08-28T09:54:28.376Z,23.66
2018-08-28T09:55:37.539Z,23.61
2018-08-28T09:56:47.358Z,23.69
2018-08-28T09:57:57.304Z,23.65
2018-08-28T09:59:07.069Z,23.65
2018-08-28T10:00:16.219Z,23.69
2018-08-28T10:01:25.125Z,23.72
2018-08-28T10:02:34.602Z,23.69
2018-08-28T10:03:44.037Z,23.61
2018-08-28T10:04:53.340Z,23.63
2018-08-28T10:06:03.324Z,23.73
2018-08-28T10:07:12.497Z,23.65
2018-08-28T10:08:21.948Z,23.63
2018-08-28T10:09:30.862Z,23.78
2018-08-28T10:10:40.542Z,23.65
2018-08-28T10:11:49.448Z,23.69
2018-08-28T10:12:58.905Z,23.7
2018-08-28T10:14:08.848Z,23.76
2018-08-28T10:15:18.279Z,23.68
2018-08-28T10:16:27.456Z,23.66
2018-08-28T10:17:36.676Z,23.66
2018-08-28T10:18:46.104Z,23.69
2018-08-28T10:19:55.276Z,23.75
2018-08-28T10:21:04.708Z,23.7
2018-08-28T10:22:13.628Z,23.66
2018-08-28T10:23:23.057Z,23.7
2018-08-28T10:24:32.745Z,23.76
2018-08-28T10:25:42.174Z,23.73
2018-08-28T10:26:51.072Z,23.7
2018-08-28T10:28:00.756Z,23.72
2018-08-28T10:29:09.426Z,23.7
2018-08-28T10:30:18.736Z,23.76
2018-08-28T10:31:28.935Z,23.75
2018-08-28T10:32:38.111Z,23.79
2018-08-28T10:33:47.537Z,23.76
2018-08-28T10:34:56.696Z,23.73
2018-08-28T10:36:06.392Z,23.75
2018-08-28T10:37:16.330Z,23.65
2018-08-28T10:38:26.082Z,23.73
2018-08-28T10:39:35.517Z,23.73
2018-08-28T10:40:44.941Z,23.76
2018-08-28T10:41:54.102Z,23.68
2018-08-28T10:43:03.834Z,23.66
2018-08-28T10:44:13.290Z,23.73
2018-08-28T10:45:22.974Z,23.79
2018-08-28T10:46:32.420Z,23.76
2018-08-28T10:47:41.696Z,23.72
2018-08-28T10:48:51.633Z,23.68
2018-08-28T10:50:00.834Z,23.68
2018-08-28T10:51:10.523Z,23.65
2018-08-28T10:52:20.195Z,23.78
2018-08-28T10:53:29.355Z,23.7
2018-08-28T10:54:39.295Z,23.7
2018-08-28T10:55:48.970Z,23.63
2018-08-28T10:56:58.391Z,23.72
2018-08-28T10:58:07.554Z,23.72
2018-08-28T10:59:16.481Z,23.72
2018-08-28T11:00:25.666Z,23.7
2018-08-28T11:01:34.821Z,23.75
2018-08-28T11:02:43.997Z,23.75
2018-08-28T11:03:53.439Z,23.73
2018-08-28T11:05:02.599Z,23.72
2018-08-28T11:06:12.292Z,23.65
2018-08-28T11:07:21.984Z,23.8
2018-08-28T11:08:31.740Z,23.8
2018-08-28T11:09:41.830Z,23.73
2018-08-28T11:10:50.728Z,23.75
2018-08-28T11:11:59.897Z,23.79
2018-08-28T11:13:09.317Z,23.69
2018-08-28T11:14:18.755Z,23.78
2018-08-28T11:15:28.441Z,23.8
2018-08-28T11:16:37.615Z,23.72
2018-08-28T11:17:46.540Z,23.83
2018-08-28T11:18:56.486Z,23.78
2018-08-28T11:20:06.160Z,23.85
2018-08-28T11:21:15.324Z,23.76
2018-08-28T11:22:24.896Z,23.79
2018-08-28T11:23:34.416Z,23.84
2018-08-28T11:24:43.598Z,23.83
2018-08-28T11:25:53.268Z,23.75
2018-08-28T11:27:02.974Z,23.79
2018-08-28T11:28:12.143Z,23.83
2018-08-28T11:29:21.556Z,23.75
2018-08-28T11:30:30.980Z,23.8
2018-08-28T11:31:40.407Z,23.78
2018-08-28T11:32:49.063Z,23.87
2018-08-28T11:33:58.542Z,23.84
2018-08-28T11:35:08.244Z,23.76
2018-08-28T11:36:17.934Z,23.7
2018-08-28T11:37:27.361Z,23.69
2018-08-28T11:38:37.348Z,23.69
2018-08-28T11:39:47.073Z,23.7
2018-08-28T11:40:57.180Z,23.68
2018-08-28T11:42:06.354Z,23.73
2018-08-28T11:43:15.837Z,23.78
2018-08-28T11:44:25.270Z,23.7
2018-08-28T11:45:34.986Z,23.83
2018-08-28T11:46:44.670Z,23.83
2018-08-28T11:47:54.163Z,23.78
2018-08-28T11:49:04.152Z,23.73
2018-08-28T11:50:13.103Z,23.73
2018-08-28T11:51:22.528Z,23.83
2018-08-28T11:52:32.088Z,23.79
2018-08-28T11:53:42.006Z,23.83
2018-08-28T11:54:51.428Z,23.87
2018-08-28T11:56:01.132Z,23.78
2018-08-28T11:57:10.345Z,23.7
2018-08-28T11:58:19.764Z,23.78
2018-08-28T11:59:29.545Z,23.83
2018-08-28T12:00:39.216Z,23.76
2018-08-28T12:01:48.123Z,23.76
2018-08-28T12:02:57.880Z,23.72
2018-08-28T12:04:07.036Z,23.78
2018-08-28T12:05:17.150Z,23.83
2018-08-28T12:06:26.996Z,23.75
2018-08-28T12:07:37.138Z,23.8
2018-08-28T12:08:46.054Z,23.84
2018-08-28T12:09:55.737Z,23.8
2018-08-28T12:11:04.900Z,23.75
2018-08-28T12:12:14.130Z,23.85
2018-08-28T12:13:23.568Z,23.88
2018-08-28T12:14:32.218Z,23.75
2018-08-28T12:15:41.380Z,23.85
2018-08-28T12:16:51.079Z,23.84
2018-08-28T12:18:00.759Z,23.83
2018-08-28T12:19:10.175Z,23.79
2018-08-28T12:20:19.168Z,23.76
2018-08-28T12:21:29.036Z,23.87
2018-08-28T12:22:38.724Z,23.83
2018-08-28T12:23:48.152Z,23.78
2018-08-28T12:24:57.580Z,23.85
2018-08-28T12:26:06.762Z,23.76
2018-08-28T12:27:16.197Z,23.88
2018-08-28T12:28:25.888Z,23.85
2018-08-28T12:29:35.750Z,23.9
2018-08-28T12:30:45.698Z,23.8
2018-08-28T12:31:55.374Z,23.83
2018-08-28T12:33:05.050Z,23.8
2018-08-28T12:34:14.472Z,23.85
2018-08-28T12:35:23.988Z,23.79
2018-08-28T12:36:33.674Z,23.79
2018-08-28T12:37:43.760Z,23.79
2018-08-28T12:38:53.453Z,23.91
2018-08-28T12:40:03.153Z,23.87
2018-08-28T12:41:12.584Z,23.88
2018-08-28T12:42:22.281Z,23.87
2018-08-28T12:43:31.699Z,23.79
2018-08-28T12:44:41.398Z,23.85
2018-08-28T12:45:50.565Z,23.8
2018-08-28T12:47:00.251Z,23.8
2018-08-28T12:48:09.407Z,23.88
2018-08-28T12:49:18.854Z,23.88
2018-08-28T12:50:28.045Z,23.94
2018-08-28T12:51:37.462Z,23.9
2018-08-28T12:52:46.630Z,23.91
2018-08-28T12:53:56.592Z,24
2018-08-28T12:55:06.455Z,23.8
2018-08-28T12:56:16.356Z,23.88
2018-08-28T12:57:26.307Z,23.93
2018-08-28T12:58:36.021Z,23.91
2018-08-28T12:59:46.164Z,23.91
2018-08-28T13:00:55.875Z,23.87
2018-08-28T13:02:05.323Z,23.95
2018-08-28T13:03:15.192Z,23.88
2018-08-28T13:04:24.358Z,23.93
2018-08-28T13:05:33.794Z,23.9
2018-08-28T13:06:43.485Z,23.87
2018-08-28T13:07:52.915Z,23.87
2018-08-28T13:09:02.590Z,23.87
2018-08-28T13:10:12.609Z,23.9
2018-08-28T13:11:22.619Z,23.97
2018-08-28T13:12:32.582Z,23.93
2018-08-28T13:13:42.039Z,23.95
2018-08-28T13:14:52.592Z,23.94
2018-08-28T13:16:02.990Z,23.94
2018-08-28T13:17:12.445Z,23.95
2018-08-28T13:18:21.903Z,23.93
2018-08-28T13:19:30.807Z,23.94
2018-08-28T13:20:40.244Z,23.88
2018-08-28T13:21:50.008Z,24
2018-08-28T13:22:59.690Z,23.98
2018-08-28T13:24:09.167Z,23.88
2018-08-28T13:25:18.747Z,23.94
2018-08-28T13:26:28.660Z,23.97
2018-08-28T13:27:37.866Z,23.91
2018-08-28T13:28:47.554Z,24.06
2018-08-28T13:29:57.513Z,24.05
2018-08-28T13:31:07.216Z,24.02
2018-08-28T13:32:16.644Z,24.08
2018-08-28T13:33:26.067Z,24.03
2018-08-28T13:34:35.738Z,24.06
2018-08-28T13:35:45.687Z,24.05
2018-08-28T13:36:54.846Z,24.03
2018-08-28T13:38:04.533Z,23.97
2018-08-28T13:39:14.001Z,24.05
2018-08-28T13:40:23.704Z,24.03
2018-08-28T13:41:32.697Z,24.03
2018-08-28T13:42:42.370Z,24.09
2018-08-28T13:43:52.335Z,24.05
2018-08-28T13:45:01.765Z,24.08
2018-08-28T13:46:11.463Z,24.05
2018-08-28T13:47:21.286Z,24.09
2018-08-28T13:48:30.713Z,24.02
2018-08-28T13:49:39.883Z,24.03
2018-08-28T13:50:49.328Z,24.1
2018-08-28T13:51:59.273Z,24.06
2018-08-28T13:53:08.708Z,24.09
2018-08-28T13:54:18.454Z,24.12
2018-08-28T13:55:28.105Z,24.09
2018-08-28T13:56:37.024Z,24.15
2018-08-28T13:57:46.512Z,24.09
2018-08-28T13:58:55.940Z,24.13
2018-08-28T14:00:06.213Z,24.16
2018-08-28T14:01:16.198Z,24.05
2018-08-28T14:02:25.120Z,24.13
2018-08-28T14:03:34.801Z,24.15
2018-08-28T14:04:43.976Z,24.03
2018-08-28T14:05:53.410Z,24.09
2018-08-28T14:07:02.599Z,24.1
2018-08-28T14:08:12.039Z,24.09
2018-08-28T14:09:21.459Z,24.09
2018-08-28T14:10:30.884Z,24.1
2018-08-28T14:11:40.636Z,24.12
2018-08-28T14:12:50.347Z,24.18
2018-08-28T14:14:00.485Z,24.13
2018-08-28T14:15:10.581Z,24.15
2018-08-28T14:16:20.276Z,24.05
2018-08-28T14:17:29.514Z,24.16
2018-08-28T14:18:39.483Z,24.16
2018-08-28T14:19:49.153Z,24.2
2018-08-28T14:20:58.587Z,24.13
2018-08-28T14:22:08.296Z,24.18
2018-08-28T14:23:17.731Z,24.16
2018-08-28T14:24:27.436Z,24.25
2018-08-28T14:25:37.359Z,24.25
2018-08-28T14:26:46.535Z,24.18
2018-08-28T14:27:56.067Z,24.2
2018-08-28T14:29:05.926Z,24.25
2018-08-28T14:30:15.183Z,24.22
2018-08-28T14:31:24.373Z,24.24
2018-08-28T14:32:33.585Z,24.24
2018-08-28T14:33:43.326Z,24.13
2018-08-28T14:34:52.763Z,24.24
2018-08-28T14:36:02.723Z,24.21
2018-08-28T14:37:12.151Z,24.18
2018-08-28T14:38:21.584Z,24.15
2018-08-28T14:39:31.423Z,24.18
2018-08-28T14:40:41.122Z,24.21
2018-08-28T14:41:50.830Z,24.21
2018-08-28T14:43:00.529Z,24.2
2018-08-28T14:44:10.491Z,24.18
2018-08-28T14:45:19.956Z,24.15
2018-08-28T14:46:29.168Z,24.18
2018-08-28T14:47:38.639Z,24.16
2018-08-28T14:48:47.823Z,24.21
2018-08-28T14:49:57.658Z,24.21
2018-08-28T14:51:07.518Z,24.18
2018-08-28T14:52:17.498Z,24.22
2018-08-28T14:53:27.284Z,24.18
2018-08-28T14:54:36.742Z,24.22
2018-08-28T14:55:46.472Z,24.16
2018-08-28T14:56:56.127Z,24.22
2018-08-28T14:58:05.735Z,24.2
2018-08-28T14:59:15.339Z,24.1
2018-08-28T15:00:24.806Z,24.13